Etusivu
METAR-TAF:

METAR-TAF

Lentoasemat :

Polokwane, Etelä-Afrikka

Leveyspiiri: 23-50-43S, Pituuspiiri: 29-27-31E, korkeus merenpinnasta: 1242 m

Tämänhetkinen sää

Tämä raportti tehtiin 1 tunti ja 0 minuuttia sitten, kello 06.00 UTC
Tuuli 4 kn etelästä/lounaasta
Lämpötila 8°C
Kosteus 76%
Ilmanpaine 1032 hPa
Näkyvyys 10 km tai enemmän
ei pilviä alle 1500 m:ssä eikä cumulonimbus-pilviä

METAR: FAPP 140600Z 20004KT CAVOK 08/04 Q1032 NOSIG

Aika: 09:00 (07:00 UTC)

Sääennuste

Tämä raportti tehtiin 1 tunti ja 0 minuuttia sitten, kello 06.00 UTC
Ennuste voimassa 14. päivästä klo 07 UTC - 14. päivään klo 18 UTC
Tuuli 3 kn eri suunnista
Näkyvyys 10 km tai enemmän
ei pilviä alle 1500 m:ssä eikä cumulonimbus-pilviä
Tulossa
14. päivästä klo 14 UTC - 14. päivään klo 16 UTC
Tuuli 8 kn koillisesta

TAF: FAPP 140600Z 1407/1418 VRB03KT CAVOK TX21/1413Z TN11/1418Z BECMG 1414/1416 04008KT

Säähavainnot ja -ennusteet yli 4000 lentoasemalta (METAR- ja TAF-raportit).

Käytössä olevat sääasemat on merkitty karttaan keltaisilla ja punaisilla pisteillä.

Aseta hiiri pisteen päälle nähdäksesi sääaseman nimen.

Klikkaa sitten nähdäksesi säähavainnot ja -ennusteet.

Kartan vaihtaminen: klikkaa mustalla rastilla varustettuja vihreitä pisteitä, niin voit zoomata sisään; viivalla varustettua vihreää pistettä, niin voit zoomata ulos tai vihreitä nuolia, niin pääset viereisille kartoille.


METAR-TAF: